Time;durP1;ratioP1;P1;durP2;ratioP2;P2;SDS_P1;SDS_P2;PMS_P1;PMS_P2;Temp;Humidity;BMP_temperature;BMP_pressure;BME280_temperature;BME280_humidity;BME280_pressure;Samples;Min_cycle;Max_cycle;Signal;HPM_P1;HPM_P2
2023/03/04 00:00:47;;;;;;;;;63.00;44.80;;;;;5.35;56.93;102472.06;2005104;28;3648114;-74
2023/03/04 00:01:59;;;;;;;;;54.33;43.33;;;;;5.36;56.87;102473.81;2008559;28;3612747;-74
2023/03/04 00:03:14;;;;;;;;;56.00;44.67;;;;;5.36;56.82;102467.75;1994781;28;3616909;-75
2023/03/04 00:04:25;;;;;;;;;59.00;43.67;;;;;5.37;57.18;102475.59;1999132;28;3632518;-74
2023/03/04 00:05:37;;;;;;;;;57.00;44.00;;;;;5.38;57.08;102472.09;2014216;28;3633599;-75
2023/03/04 00:06:49;;;;;;;;;58.00;46.00;;;;;5.37;57.52;102478.19;2015274;28;3623143;-74
2023/03/04 00:08:00;;;;;;;;;57.40;44.00;;;;;5.36;57.50;102480.78;2001919;27;2879495;-75
2023/03/04 00:09:12;;;;;;;;;56.67;42.00;;;;;5.33;57.51;102479.00;2040603;27;3616857;-74
2023/03/04 00:10:24;;;;;;;;;51.00;39.67;;;;;5.31;57.26;102485.88;2003902;28;3601273;-75
2023/03/04 00:11:36;;;;;;;;;64.00;46.00;;;;;5.31;57.41;102478.06;2038049;28;3658578;-75
2023/03/04 00:12:48;;;;;;;;;59.00;45.00;;;;;5.31;57.17;102479.81;2014819;28;3641935;-75
2023/03/04 00:14:00;;;;;;;;;56.20;43.40;;;;;5.29;57.32;102478.06;2021440;27;3633538;-74
2023/03/04 00:15:12;;;;;;;;;55.33;41.00;;;;;5.30;57.27;102473.72;2017538;28;3624196;-74
2023/03/04 00:16:27;;;;;;;;;54.33;41.00;;;;;5.29;57.50;102477.16;2024443;27;3593979;-75
2023/03/04 00:17:39;;;;;;;;;56.33;42.67;;;;;5.28;57.44;102476.28;2005485;27;3616210;-74
2023/03/04 00:18:54;;;;;;;;;61.00;45.75;;;;;5.28;57.26;102473.69;2017446;27;3647121;-74
2023/03/04 00:20:06;;;;;;;;;59.67;44.00;;;;;5.29;57.49;102472.84;1999033;27;3650221;-75
2023/03/04 00:21:18;;;;;;;;;55.67;40.67;;;;;5.28;57.35;102480.66;2004311;27;3597125;-75
2023/03/04 00:22:30;;;;;;;;;57.33;44.33;;;;;5.28;57.64;102478.88;2014781;27;3628367;-74
2023/03/04 00:23:42;;;;;;;;;59.67;44.33;;;;;5.27;57.57;102484.09;2016259;28;3626279;-74
2023/03/04 00:24:54;;;;;;;;;60.00;45.67;;;;;5.27;57.22;102478.88;2002565;28;3627333;-75
2023/03/04 00:26:08;;;;;;;;;54.00;42.60;;;;;5.27;57.15;102476.28;2013492;27;3613732;-75
2023/03/04 00:27:19;;;;;;;;;52.00;40.67;;;;;5.27;57.75;102473.66;1992082;28;3606461;-75
2023/03/04 00:28:30;;;;;;;;;51.20;38.00;;;;;5.27;57.14;102484.09;2003605;28;2866903;-75
2023/03/04 00:29:42;;;;;;;;;53.67;42.33;;;;;5.28;57.94;102484.09;2040985;27;3602279;-74
2023/03/04 00:30:54;;;;;;;;;54.33;43.33;;;;;5.30;57.38;102481.53;2037874;28;3606473;-75
2023/03/04 00:32:06;;;;;;;;;58.67;44.33;;;;;5.28;57.74;102480.66;2006593;28;3639127;-74
2023/03/04 00:33:18;;;;;;;;;55.40;43.40;;;;;5.26;57.87;102487.56;2016472;28;3613749;-75
2023/03/04 00:34:30;;;;;;;;;51.00;40.00;;;;;5.25;57.61;102489.28;2018770;27;3602329;-75
2023/03/04 00:35:42;;;;;;;;;58.00;42.67;;;;;5.23;57.61;102483.19;2013867;28;3625230;-74
2023/03/04 00:37:00;;;;;;;;;54.67;43.00;;;;;5.24;57.28;102486.63;2015830;27;3595051;-75
2023/03/04 00:38:11;;;;;;;;;57.33;45.00;;;;;5.23;57.46;102484.91;1999536;28;3623171;-75
2023/03/04 00:39:22;;;;;;;;;58.40;43.00;;;;;5.22;58.06;102481.41;2001699;27;2889917;-75
2023/03/04 00:40:35;;;;;;;;;55.14;42.43;;;;;5.21;58.16;102484.84;2041872;28;3611650;-75
2023/03/04 00:41:47;;;;;;;;;58.00;43.00;;;;;5.18;57.56;102480.47;2016213;28;3632635;-75
2023/03/04 00:42:59;;;;;;;;;60.00;47.00;;;;;5.20;57.53;102490.03;2014921;28;3613792;-75
2023/03/04 00:44:11;;;;;;;;;59.33;47.67;;;;;5.18;57.68;102485.66;2016827;27;3614865;-75
2023/03/04 00:45:23;;;;;;;;;55.33;43.67;;;;;5.18;57.52;102490.03;2008413;28;3610022;-75
2023/03/04 00:46:35;;;;;;;;;57.67;43.67;;;;;5.18;57.31;102490.03;2015002;27;3614817;-75
2023/03/04 00:47:47;;;;;;;;;54.67;41.00;;;;;5.18;57.65;102490.88;2014723;27;3607533;-75
2023/03/04 00:48:58;;;;;;;;;57.00;43.80;;;;;5.16;58.00;102489.13;2003128;28;2867996;-75
2023/03/04 00:50:09;;;;;;;;;62.60;43.20;;;;;5.15;57.82;102490.84;2018360;27;2873519;-75
2023/03/04 00:51:21;;;;;;;;;58.67;43.00;;;;;5.15;57.82;102493.47;2024362;28;3608567;-75
2023/03/04 00:52:32;;;;;;;;;66.80;50.20;;;;;5.15;57.70;102495.19;2004351;28;2880555;-75
2023/03/04 00:53:44;;;;;;;;;59.33;47.00;;;;;5.14;57.85;102496.91;2042368;27;3615816;-75
2023/03/04 00:54:56;;;;;;;;;62.00;44.67;;;;;5.14;57.83;102494.28;2014584;28;3642946;-74
2023/03/04 00:56:08;;;;;;;;;59.00;45.33;;;;;5.14;57.64;102496.91;2013558;27;3633586;-75
2023/03/04 00:57:21;;;;;;;;;56.43;43.86;;;;;5.15;57.77;102500.41;2010744;28;3627333;-75
2023/03/04 00:58:33;;;;;;;;;59.00;46.67;;;;;5.14;58.04;102494.28;2014347;27;3604406;-75
2023/03/04 00:59:45;;;;;;;;;56.40;45.00;;;;;5.13;57.55;102502.97;2002191;28;2879485;-75
2023/03/04 01:00:56;;;;;;;;;57.33;43.33;;;;;5.14;58.05;102496.03;2016241;28;3622088;-75
2023/03/04 01:02:09;;;;;;;;;61.71;46.43;;;;;5.11;58.58;102509.88;2017771;28;3622121;-75
2023/03/04 01:03:21;;;;;;;;;57.00;46.00;;;;;5.09;58.20;102506.38;2003806;28;3625245;-74
2023/03/04 01:04:33;;;;;;;;;54.00;44.00;;;;;5.07;58.14;102501.13;2016119;27;3608561;-75
2023/03/04 01:05:45;;;;;;;;;54.33;39.67;;;;;5.05;58.32;102504.56;2016836;27;3602302;-75
2023/03/04 01:06:59;;;;;;;;;59.75;44.75;;;;;5.03;58.10;102504.53;2041392;27;3639793;-75
2023/03/04 01:08:10;;;;;;;;;58.33;44.67;;;;;5.03;58.26;102511.47;2000178;27;3621075;-75
2023/03/04 01:09:22;;;;;;;;;53.00;41.67;;;;;5.01;58.53;102507.97;2017579;27;3607515;-75
2023/03/04 01:10:34;;;;;;;;;61.33;47.00;;;;;5.00;58.38;102500.97;2014529;27;3627314;-74
2023/03/04 01:11:46;;;;;;;;;57.67;45.00;;;;;4.99;58.56;102504.47;2015682;27;3623164;-74
2023/03/04 01:12:58;;;;;;;;;64.33;47.67;;;;;4.99;58.46;102502.69;2018074;27;3634601;-75
2023/03/04 01:14:10;;;;;;;;;55.67;44.00;;;;;5.00;58.20;102495.78;2015296;27;3602368;-75
2023/03/04 01:15:22;;;;;;;;;60.00;45.33;;;;;5.02;58.26;102501.88;2014785;27;3618987;-75
2023/03/04 01:16:34;;;;;;;;;59.00;41.33;;;;;5.02;58.01;102499.28;2013737;27;3621090;-75
2023/03/04 01:17:46;;;;;;;;;63.00;48.33;;;;;5.03;58.10;102501.06;2018086;27;3613756;-75
2023/03/04 01:18:58;;;;;;;;;56.00;41.67;;;;;5.03;58.75;102503.66;2007169;27;3603399;-75
2023/03/04 01:20:11;;;;;;;;;59.33;45.33;;;;;5.04;58.48;102502.78;2023248;27;3624212;-74
2023/03/04 01:21:22;;;;;;;;;53.67;39.00;;;;;5.05;58.52;102505.44;2007314;27;3624192;-75
2023/03/04 01:22:35;;;;;;;;;58.00;43.67;;;;;5.06;58.50;102501.13;2014221;27;3624192;-75
2023/03/04 01:23:46;;;;;;;;;54.67;40.67;;;;;5.05;58.07;102500.22;2000184;27;3609007;-75
2023/03/04 01:24:59;;;;;;;;;54.43;42.57;;;;;5.05;58.32;102507.16;2015538;28;3596072;-75
2023/03/04 01:26:13;;;;;;;;;59.63;46.00;;;;;5.04;58.40;102502.78;2010659;28;3637709;-75
2023/03/04 01:27:24;;;;;;;;;60.80;45.80;;;;;5.03;58.18;102506.25;1999396;28;2882637;-75
2023/03/04 01:28:35;;;;;;;;;62.60;47.60;;;;;5.01;58.25;102490.56;2026263;27;2888937;-75
2023/03/04 01:29:47;;;;;;;;;59.67;48.67;;;;;5.00;58.21;102498.38;2025551;28;3612690;-75
2023/03/04 01:31:01;;;;;;;;;59.86;45.71;;;;;4.99;58.23;102496.63;2016427;28;3614850;-75
2023/03/04 01:32:13;;;;;;;;;60.00;43.33;;;;;4.97;58.58;102487.88;2001134;27;3643292;-75
2023/03/04 01:33:25;;;;;;;;;60.67;48.33;;;;;4.97;58.42;102493.09;2017927;27;3600237;-75
2023/03/04 01:34:37;;;;;;;;;57.00;44.33;;;;;4.98;58.32;102498.34;2015621;27;3616902;-75
2023/03/04 01:35:49;;;;;;;;;58.33;44.33;;;;;4.96;58.13;102489.63;2012524;27;3631507;-75
2023/03/04 01:37:01;;;;;;;;;63.67;46.67;;;;;4.98;58.24;102492.25;2008735;28;3646066;-75
2023/03/04 01:38:13;;;;;;;;;58.67;43.67;;;;;4.98;58.68;102492.25;2011715;27;3634608;-75
2023/03/04 01:39:25;;;;;;;;;59.33;48.00;;;;;4.97;58.25;102487.88;2012284;28;3603364;-74
2023/03/04 01:40:37;;;;;;;;;67.67;49.67;;;;;4.95;58.66;102496.56;2008279;28;3647119;-75
2023/03/04 01:41:49;;;;;;;;;59.67;45.67;;;;;4.94;58.68;102489.59;1998897;28;3635032;-74
2023/03/04 01:43:01;;;;;;;;;64.33;48.33;;;;;4.92;58.38;102486.09;2016878;27;3635158;-75
2023/03/04 01:44:13;;;;;;;;;60.00;49.33;;;;;4.93;58.84;102482.63;2014284;28;3623219;-75
2023/03/04 01:45:25;;;;;;;;;47.33;35.67;;;;;4.93;58.65;102489.56;2012537;28;3595086;-75
2023/03/04 01:46:40;;;;;;;;;62.33;47.00;;;;;4.93;58.38;102481.75;2026235;28;3625579;-75
2023/03/04 01:47:51;;;;;;;;;59.33;43.67;;;;;4.91;58.65;102484.34;1998072;27;3614174;-75
2023/03/04 01:49:05;;;;;;;;;65.00;48.67;;;;;4.90;58.13;102484.28;2000809;28;3640237;-75
2023/03/04 01:50:26;;;;;;;;;66.00;50.00;;;;;4.88;58.71;102476.47;2001152;27;3617935;-74
2023/03/04 01:51:37;;;;;;;;;67.00;49.33;;;;;4.89;58.88;102488.63;1997762;28;3640170;-75
2023/03/04 01:52:49;;;;;;;;;63.67;48.00;;;;;4.88;59.16;102484.28;2009284;28;3630463;-75
2023/03/04 01:54:01;;;;;;;;;71.67;51.33;;;;;4.88;58.71;102476.47;2013402;28;3640252;-75
2023/03/04 01:55:18;;;;;;;;;66.00;50.00;;;;;4.89;58.23;102482.56;2014287;28;3631576;-75
2023/03/04 01:56:36;;;;;;;;;61.00;48.33;;;;;4.89;58.37;102483.41;1999782;27;3627317;-75
2023/03/04 01:57:49;;;;;;;;;62.67;45.33;;;;;4.89;58.59;102478.19;1993380;28;3637726;-75
2023/03/04 01:59:08;;;;;;;;;68.00;48.67;;;;;4.88;58.81;102476.47;2000439;27;3651274;-75
2023/03/04 02:00:22;;;;;;;;;67.00;50.00;;;;;4.90;58.44;102472.16;1999559;28;3637768;-74
2023/03/04 02:01:35;;;;;;;;;61.00;48.00;;;;;4.91;59.03;102480.84;1999055;28;3622145;-74
2023/03/04 02:02:50;;;;;;;;;63.33;49.00;;;;;4.92;58.58;102483.47;2000407;28;3621065;-75
2023/03/04 02:04:02;;;;;;;;;66.67;48.67;;;;;4.91;58.82;102471.31;1998127;28;3640877;-75
2023/03/04 02:05:14;;;;;;;;;70.00;51.00;;;;;4.89;58.70;102472.13;2010156;27;3626331;-75
2023/03/04 02:06:26;;;;;;;;;64.67;48.33;;;;;4.88;58.77;102471.25;2000677;28;3627320;-75
2023/03/04 02:07:38;;;;;;;;;58.67;44.00;;;;;4.88;58.87;102468.63;2012648;28;3609673;-74
2023/03/04 02:08:50;;;;;;;;;62.00;46.00;;;;;4.87;58.85;102474.69;2014700;28;3645051;-75
2023/03/04 02:10:02;;;;;;;;;62.00;47.67;;;;;4.84;58.71;102469.41;2016604;28;3615893;-74
2023/03/04 02:11:14;;;;;;;;;62.00;47.67;;;;;4.84;59.04;102472.00;2001924;27;3607519;-75
2023/03/04 02:12:25;;;;;;;;;65.00;49.60;;;;;4.82;58.62;102468.50;2001190;27;2888875;-75
2023/03/04 02:13:37;;;;;;;;;67.00;52.00;;;;;4.81;58.85;102470.25;2041987;28;3578320;-75
2023/03/04 02:14:49;;;;;;;;;64.00;49.67;;;;;4.80;59.13;102465.00;2040068;28;3623200;-75
2023/03/04 02:16:02;;;;;;;;;67.38;50.38;;;;;4.79;58.88;102469.31;2015156;27;3650208;-75
2023/03/04 02:17:14;;;;;;;;;62.67;48.67;;;;;4.80;58.89;102462.38;2009626;28;3614809;-75
2023/03/04 02:18:25;;;;;;;;;73.80;53.20;;;;;4.80;59.08;102472.81;2004104;28;2886103;-75
2023/03/04 02:19:58;;;;;;;;;64.00;47.67;;;;;4.81;58.78;102469.38;2040650;27;3625178;-75
2023/03/04 02:21:30;;;;;;;;;60.00;46.33;;;;;4.79;58.65;102471.06;1995915;27;3603375;-75
2023/03/04 02:22:52;;;;;;;;;66.00;49.00;;;;;4.78;59.36;102470.19;1995133;28;3638794;-75
2023/03/04 02:24:38;;;;;;;;;64.67;49.33;;;;;4.75;59.14;102470.13;1995168;27;3633570;-75
2023/03/04 02:26:09;;;;;;;;;64.00;48.33;;;;;4.75;59.02;102469.25;1997733;28;3622109;-75
2023/03/04 02:27:21;;;;;;;;;61.67;49.33;;;;;4.72;58.80;102464.84;1999536;28;3608636;-74
2023/03/04 02:28:33;;;;;;;;;62.33;48.00;;;;;4.70;59.21;102467.44;1999913;28;3612754;-74
2023/03/04 02:29:45;;;;;;;;;63.33;50.00;;;;;4.68;59.45;102473.44;2015065;28;3610658;-74
2023/03/04 02:30:57;;;;;;;;;65.00;49.67;;;;;4.66;58.97;102465.63;2012352;28;3622102;-74
2023/03/04 02:32:11;;;;;;;;;68.67;50.67;;;;;4.64;59.34;102472.53;2016050;28;3647175;-75
2023/03/04 02:33:23;;;;;;;;;63.67;48.33;;;;;4.63;59.32;102465.56;2000416;28;3623169;-74
2023/03/04 02:34:36;;;;;;;;;61.67;48.67;;;;;4.64;59.32;102471.66;2015865;27;3618991;-75
2023/03/04 02:35:47;;;;;;;;;64.33;49.00;;;;;4.63;59.53;102465.56;1996957;28;3622124;-75
2023/03/04 02:37:00;;;;;;;;;62.00;47.33;;;;;4.62;59.05;102458.56;2014740;28;3638771;-75
2023/03/04 02:38:12;;;;;;;;;59.33;45.00;;;;;4.63;58.93;102464.66;2000813;27;3608643;-74
2023/03/04 02:39:35;;;;;;;;;66.67;50.00;;;;;4.63;59.71;102462.94;2001431;28;3633559;-74
2023/03/04 02:40:50;;;;;;;;;64.00;47.00;;;;;4.64;59.42;102463.84;2000594;27;3615863;-74
2023/03/04 02:42:02;;;;;;;;;61.33;47.67;;;;;4.62;59.38;102455.97;1999826;27;3620033;-74
2023/03/04 02:43:14;;;;;;;;;64.33;49.33;;;;;4.63;59.41;102457.72;2001150;27;3635664;-74
2023/03/04 02:44:31;;;;;;;;;68.00;49.67;;;;;4.61;59.59;102456.84;2005873;28;3640862;-75
2023/03/04 02:45:50;;;;;;;;;66.33;50.00;;;;;4.60;59.42;102455.94;1997035;28;3633569;-74
2023/03/04 02:47:03;;;;;;;;;64.67;48.67;;;;;4.60;59.16;102455.06;2000934;28;3640877;-74
2023/03/04 02:48:18;;;;;;;;;58.67;48.00;;;;;4.60;59.46;102462.88;2000919;28;3609609;-75
2023/03/04 02:49:31;;;;;;;;;64.67;52.00;;;;;4.59;59.66;102462.00;2021441;27;3609622;-75
2023/03/04 02:50:47;;;;;;;;;62.33;48.33;;;;;4.60;59.27;102461.16;2000882;27;3630965;-75
2023/03/04 02:52:09;;;;;;;;;58.67;45.67;;;;;4.63;59.34;102459.47;2001229;27;3636677;-74
2023/03/04 02:53:21;;;;;;;;;66.00;50.67;;;;;4.63;59.10;102460.34;1999653;27;3623155;-75
2023/03/04 02:54:33;;;;;;;;;65.00;49.67;;;;;4.64;59.57;102451.69;2000193;28;3622514;-75
2023/03/04 02:55:45;;;;;;;;;66.67;50.00;;;;;4.65;59.55;102453.44;2005744;28;3638091;-75
2023/03/04 02:57:02;;;;;;;;;61.33;47.67;;;;;4.66;59.13;102452.59;1993055;28;3603422;-75
2023/03/04 02:58:14;;;;;;;;;69.67;50.67;;;;;4.67;59.58;102456.06;1999760;27;3631507;-74
2023/03/04 02:59:26;;;;;;;;;45.80;33.20;;;;;4.66;59.10;102451.72;2019830;27;3616985;-74
2023/03/04 03:00:39;;;;;;;;;58.33;45.67;;;;;4.64;59.50;102443.88;2003091;28;3600250;-74
2023/03/04 03:01:50;;;;;;;;;66.00;49.33;;;;;4.63;59.57;102455.13;1999286;28;3633991;-74
2023/03/04 03:03:03;;;;;;;;;61.67;46.33;;;;;4.63;59.08;102444.72;2012311;28;3625256;-75
2023/03/04 03:04:14;;;;;;;;;64.67;45.00;;;;;4.64;59.48;102454.28;2005323;27;3632537;-75
2023/03/04 03:05:29;;;;;;;;;60.00;46.33;;;;;4.64;59.11;102456.91;2006923;27;3618987;-75
2023/03/04 03:06:41;;;;;;;;;63.67;50.00;;;;;4.64;59.21;102449.09;2001143;27;3626334;-74
2023/03/04 03:07:52;;;;;;;;;64.20;50.20;;;;;4.63;59.53;102452.53;2000551;27;2882595;-74
2023/03/04 03:09:05;;;;;;;;;67.67;50.00;;;;;4.64;59.06;102437.78;2039192;28;3650248;-74
2023/03/04 03:10:16;;;;;;;;;64.67;49.33;;;;;4.65;59.22;102448.22;1998688;28;3638173;-74
2023/03/04 03:11:28;;;;;;;;;62.67;47.00;;;;;4.67;59.34;102443.03;2016226;27;3623147;-74
2023/03/04 03:12:40;;;;;;;;;64.67;49.67;;;;;4.67;59.79;102446.53;2011483;27;3640882;-74
2023/03/04 03:13:52;;;;;;;;;60.00;45.67;;;;;4.65;59.25;102435.19;2014202;27;3635683;-74
2023/03/04 03:15:06;;;;;;;;;62.86;47.00;;;;;4.66;59.14;102447.38;2015205;27;3626264;-74
2023/03/04 03:16:17;;;;;;;;;60.67;46.33;;;;;4.66;59.39;102444.78;1993186;28;3615854;-74
2023/03/04 03:17:28;;;;;;;;;64.80;49.80;;;;;4.66;59.46;102438.69;2001756;27;2879414;-74
2023/03/04 03:18:40;;;;;;;;;59.00;46.33;;;;;4.65;59.60;102445.63;2040153;28;3613768;-74
2023/03/04 03:19:52;;;;;;;;;64.00;48.33;;;;;4.63;59.21;102439.50;2014462;28;3611697;-74
2023/03/04 03:21:04;;;;;;;;;64.67;49.33;;;;;4.63;59.52;102443.81;2037373;27;3622161;-74
2023/03/04 03:22:16;;;;;;;;;62.33;47.67;;;;;4.61;59.36;102436.00;2015982;27;3633617;-74
2023/03/04 03:23:27;;;;;;;;;62.20;48.20;;;;;4.61;59.94;102438.59;2004354;27;2880465;-75
2023/03/04 03:24:39;;;;;;;;;64.00;50.33;;;;;4.58;60.16;102439.41;2040830;27;3612698;-74
2023/03/04 03:25:51;;;;;;;;;61.00;46.33;;;;;4.57;59.88;102445.47;2015840;28;3626284;-75
2023/03/04 03:27:03;;;;;;;;;60.67;48.33;;;;;4.57;59.27;102440.25;2017298;28;3610687;-74
2023/03/04 03:28:15;;;;;;;;;60.00;48.00;;;;;4.57;59.75;102444.56;2014561;28;3618971;-74
2023/03/04 03:29:27;;;;;;;;;56.33;42.33;;;;;4.58;59.75;102435.94;2003710;28;3626298;-74
2023/03/04 03:30:39;;;;;;;;;63.67;46.33;;;;;4.59;59.79;102438.56;2011440;28;3630427;-74
2023/03/04 03:31:51;;;;;;;;;61.33;48.00;;;;;4.60;59.38;102442.03;2015831;27;3626283;-75
2023/03/04 03:33:02;;;;;;;;;68.40;50.40;;;;;4.61;59.69;102441.22;2003405;28;2890344;-75
2023/03/04 03:34:14;;;;;;;;;58.67;46.00;;;;;4.60;59.51;102440.31;2033298;28;3613754;-74
2023/03/04 03:35:26;;;;;;;;;63.00;45.33;;;;;4.61;59.80;102441.22;2010210;28;3622109;-74
2023/03/04 03:36:37;;;;;;;;;63.20;47.00;;;;;4.60;59.56;102434.22;2003840;27;2871121;-74
2023/03/04 03:37:49;;;;;;;;;60.67;45.67;;;;;4.61;59.81;102436.00;2040336;27;3593969;-74
2023/03/04 03:39:01;;;;;;;;;63.67;48.33;;;;;4.61;59.98;102441.22;2004087;28;3635662;-74
2023/03/04 03:40:13;;;;;;;;;64.67;50.00;;;;;4.60;59.26;102437.72;2012350;28;3613850;-75
2023/03/04 03:41:25;;;;;;;;;57.00;45.00;;;;;4.58;59.86;102435.94;1991647;28;3627317;-75
2023/03/04 03:42:37;;;;;;;;;63.33;46.67;;;;;4.56;60.12;102435.03;2008390;27;3635670;-74
2023/03/04 03:43:48;;;;;;;;;61.40;48.20;;;;;4.54;59.77;102432.41;2002783;28;2882523;-74
2023/03/04 03:45:01;;;;;;;;;61.29;48.57;;;;;4.54;59.64;102435.00;2040242;27;3609597;-75
2023/03/04 03:46:13;;;;;;;;;63.67;46.33;;;;;4.55;59.81;102435.84;2016453;27;3634625;-74
2023/03/04 03:47:24;;;;;;;;;61.00;47.20;;;;;4.55;59.84;102435.84;1998015;28;2876285;-74
2023/03/04 03:48:36;;;;;;;;;65.00;48.00;;;;;4.55;59.78;102438.47;2040197;27;3622094;-75
2023/03/04 03:49:47;;;;;;;;;59.20;45.80;;;;;4.55;59.83;102435.84;2004782;28;2871104;-75
2023/03/04 03:51:01;;;;;;;;;61.50;45.50;;;;;4.55;59.40;102441.94;2040158;27;3635649;-74
2023/03/04 03:52:12;;;;;;;;;61.00;48.33;;;;;4.55;60.19;102435.84;2018241;27;3615833;-74
2023/03/04 03:53:24;;;;;;;;;63.33;49.33;;;;;4.55;59.70;102441.06;2006709;27;3627352;-74
2023/03/04 03:54:37;;;;;;;;;59.00;46.14;;;;;4.53;59.57;102440.16;2024470;27;3619354;-75
2023/03/04 03:55:49;;;;;;;;;59.00;46.33;;;;;4.52;59.77;102441.03;2007670;28;3607513;-75
2023/03/04 03:57:01;;;;;;;;;66.00;51.00;;;;;4.51;59.55;102445.34;2014913;27;3630449;-74
2023/03/04 03:58:13;;;;;;;;;63.00;48.00;;;;;4.50;59.52;102448.78;2016472;28;3637764;-75
2023/03/04 03:59:25;;;;;;;;;56.67;43.67;;;;;4.49;59.81;102447.91;2013325;27;3608592;-74
2023/03/04 04:00:37;;;;;;;;;62.00;43.33;;;;;4.48;59.92;102453.09;2015462;28;3623501;-75
2023/03/04 04:01:50;;;;;;;;;62.43;47.43;;;;;4.46;59.38;102453.06;2015484;28;3632567;-74
2023/03/04 04:03:02;;;;;;;;;60.00;47.33;;;;;4.46;59.72;102446.97;2015969;27;3609626;-75
2023/03/04 04:04:14;;;;;;;;;63.00;48.00;;;;;4.44;59.79;102449.56;2005237;28;3618997;-75
2023/03/04 04:05:26;;;;;;;;;65.00;48.67;;;;;4.42;59.78;102451.22;2008338;28;3641908;-75
2023/03/04 04:06:38;;;;;;;;;60.67;48.33;;;;;4.42;59.71;102451.22;2005958;28;3599185;-75
2023/03/04 04:07:49;;;;;;;;;65.20;49.00;;;;;4.42;59.90;102455.59;1998718;28;2883618;-74
2023/03/04 04:09:01;;;;;;;;;63.00;45.33;;;;;4.41;60.02;102449.50;2032006;27;3631451;-75
2023/03/04 04:10:13;;;;;;;;;61.67;48.00;;;;;4.42;59.80;102455.59;2022553;27;3602333;-74
2023/03/04 04:11:24;;;;;;;;;60.40;46.00;;;;;4.41;59.65;102461.63;2002472;27;2885751;-75
2023/03/04 04:12:36;;;;;;;;;69.67;51.00;;;;;4.40;60.25;102455.53;2040296;27;3630414;-74
2023/03/04 04:13:48;;;;;;;;;64.33;48.33;;;;;4.41;59.91;102461.63;2017611;28;3635647;-74
2023/03/04 04:15:00;;;;;;;;;59.00;47.33;;;;;4.40;60.63;102455.53;2017538;27;3600578;-74
2023/03/04 04:16:12;;;;;;;;;63.67;48.67;;;;;4.39;59.82;102451.19;2012294;27;3636722;-74
2023/03/04 04:17:23;;;;;;;;;66.80;49.20;;;;;4.38;59.91;102459.84;2002625;28;2872096;-74
2023/03/04 04:18:35;;;;;;;;;61.33;48.33;;;;;4.40;59.73;102455.53;2040957;28;3624220;-75
2023/03/04 04:19:47;;;;;;;;;66.00;49.00;;;;;4.42;60.26;102455.59;2005910;28;3628370;-74
2023/03/04 04:20:59;;;;;;;;;59.67;48.00;;;;;4.43;60.00;102460.81;2008760;27;3612770;-74
2023/03/04 04:22:15;;;;;;;;;59.33;45.33;;;;;4.42;59.80;102455.59;2012209;28;3628343;-74
2023/03/04 04:23:26;;;;;;;;;65.00;48.00;;;;;4.41;60.15;102464.22;2000082;28;3628371;-74
2023/03/04 04:24:37;;;;;;;;;64.80;50.20;;;;;4.38;60.31;102452.03;2002942;28;2878858;-74
2023/03/04 04:25:54;;;;;;;;;67.38;51.00;;;;;4.38;59.64;102457.22;2040385;28;3644018;-75
2023/03/04 04:27:05;;;;;;;;;67.00;50.00;;;;;4.37;59.94;102452.88;2022472;27;3628310;-74
2023/03/04 04:28:17;;;;;;;;;66.00;50.67;;;;;4.36;59.87;102453.72;2016708;28;3633909;-75
2023/03/04 04:29:31;;;;;;;;;69.25;48.88;;;;;4.37;60.20;102455.50;2016991;28;3650205;-74
2023/03/04 04:30:43;;;;;;;;;66.00;49.00;;;;;4.36;60.20;102453.72;2036451;27;3635665;-74
2023/03/04 04:31:55;;;;;;;;;67.00;51.00;;;;;4.36;59.90;102456.31;2015947;28;3635686;-74
2023/03/04 04:33:08;;;;;;;;;62.67;47.00;;;;;4.36;59.66;102458.94;2015739;28;3629400;-74
2023/03/04 04:34:20;;;;;;;;;59.33;48.00;;;;;4.34;59.70;102458.91;1999810;27;3614818;-75
2023/03/04 04:35:33;;;;;;;;;65.00;49.67;;;;;4.35;60.05;102463.25;2004038;27;3616967;-75
2023/03/04 04:36:45;;;;;;;;;68.67;50.00;;;;;4.36;59.65;102461.53;1997546;28;3628417;-75
2023/03/04 04:37:57;;;;;;;;;64.67;50.33;;;;;4.35;59.77;102462.38;2013932;28;3612731;-74
2023/03/04 04:39:09;;;;;;;;;66.00;50.67;;;;;4.36;59.59;102456.31;2013358;28;3635639;-75
2023/03/04 04:40:21;;;;;;;;;60.67;47.33;;;;;4.34;59.81;102461.50;2014395;27;3622114;-74
2023/03/04 04:41:39;;;;;;;;;57.67;44.67;;;;;4.34;59.92;102464.13;2008698;28;3614825;-74
2023/03/04 04:42:51;;;;;;;;;60.33;46.00;;;;;4.33;59.96;102461.47;1992700;28;3631534;-75
2023/03/04 04:44:03;;;;;;;;;66.67;47.00;;;;;4.30;59.94;102464.03;2007719;28;3640880;-74
2023/03/04 04:45:16;;;;;;;;;66.00;47.67;;;;;4.27;60.18;102463.09;2004778;28;3641912;-75
2023/03/04 04:46:28;;;;;;;;;65.00;48.33;;;;;4.26;59.71;102457.84;1995221;28;3639824;-74
2023/03/04 04:47:40;;;;;;;;;66.00;47.00;;;;;4.26;59.99;102463.06;2000195;27;3639819;-74
2023/03/04 04:48:52;;;;;;;;;68.00;51.33;;;;;4.25;59.91;102464.78;2015341;28;3630507;-74
2023/03/04 04:50:06;;;;;;;;;65.88;49.00;;;;;4.22;60.08;102462.09;2013496;28;3645504;-74
2023/03/04 04:51:18;;;;;;;;;63.33;46.00;;;;;4.20;59.98;102466.41;1991389;28;3634608;-74
2023/03/04 04:52:30;;;;;;;;;61.00;45.00;;;;;4.16;59.90;102462.88;2016416;27;3636711;-75
2023/03/04 04:53:42;;;;;;;;;59.00;47.00;;;;;4.16;59.91;102460.25;2016507;27;3615855;-74
2023/03/04 04:54:54;;;;;;;;;58.67;46.00;;;;;4.15;60.12;102461.09;2014888;28;3602332;-74
2023/03/04 04:56:15;;;;;;;;;64.33;48.00;;;;;4.15;59.76;102465.41;2012584;27;3625250;-74
2023/03/04 04:57:26;;;;;;;;;68.67;51.00;;;;;4.14;60.17;102471.50;1999104;28;3645055;-75
2023/03/04 04:58:38;;;;;;;;;64.33;50.33;;;;;4.14;59.86;102476.69;2016009;28;3613784;-74
2023/03/04 04:59:50;;;;;;;;;66.67;50.67;;;;;4.14;60.22;102476.69;2008620;28;3619322;-75
2023/03/04 05:01:03;;;;;;;;;59.00;47.00;;;;;4.14;60.26;102481.91;2014708;27;3606519;-74
2023/03/04 05:02:15;;;;;;;;;65.00;49.00;;;;;4.12;60.39;102475.78;2005243;27;3633589;-74
2023/03/04 05:03:27;;;;;;;;;62.67;45.00;;;;;4.11;59.89;102487.03;2009478;28;3651277;-75
2023/03/04 05:04:38;;;;;;;;;66.60;47.00;;;;;4.11;59.87;102481.81;2001304;28;2885785;-74
2023/03/04 05:05:50;;;;;;;;;62.33;49.00;;;;;4.10;60.23;102480.09;2031042;28;3628326;-75
2023/03/04 05:07:01;;;;;;;;;58.00;41.80;;;;;4.09;59.71;102479.19;2003653;28;2880443;-74
2023/03/04 05:08:13;;;;;;;;;66.00;50.33;;;;;4.09;59.84;102478.31;2040520;28;3626240;-75
2023/03/04 05:09:25;;;;;;;;;60.00;48.67;;;;;4.09;60.26;102480.91;2016288;28;3605447;-74
2023/03/04 05:10:38;;;;;;;;;57.57;43.71;;;;;4.09;60.33;102480.91;2014417;28;3591889;-75
2023/03/04 05:11:49;;;;;;;;;60.00;45.40;;;;;4.08;60.07;102480.03;1994858;28;2885847;-74
2023/03/04 05:13:01;;;;;;;;;67.00;47.33;;;;;4.04;60.24;102481.69;2030197;28;3639793;-74
2023/03/04 05:14:14;;;;;;;;;58.29;47.86;;;;;4.03;59.59;102489.44;2016801;28;3621071;-75
2023/03/04 05:15:26;;;;;;;;;62.00;46.00;;;;;4.01;60.19;102484.22;2014361;28;3637739;-74
2023/03/04 05:16:38;;;;;;;;;65.00;51.00;;;;;4.01;59.71;102484.22;2012477;28;3599252;-74
2023/03/04 05:17:49;;;;;;;;;66.40;48.20;;;;;4.00;60.45;102482.44;1994127;28;2889240;-74
2023/03/04 05:19:01;;;;;;;;;62.00;47.33;;;;;4.00;60.29;102486.78;2038423;28;3631436;-74
2023/03/04 05:20:13;;;;;;;;;66.33;48.33;;;;;3.98;59.92;102491.94;2016433;28;3630429;-74
2023/03/04 05:21:25;;;;;;;;;61.00;42.33;;;;;3.98;60.06;102485.84;2014349;27;3627344;-74
2023/03/04 05:22:37;;;;;;;;;59.33;43.00;;;;;3.98;60.12;102491.94;2015979;28;3624227;-74
2023/03/04 05:23:49;;;;;;;;;59.33;42.33;;;;;3.98;59.59;102491.06;2012515;28;3612060;-74
2023/03/04 05:25:01;;;;;;;;;56.33;44.67;;;;;3.96;60.21;102485.84;2008804;27;3615866;-74
2023/03/04 05:26:16;;;;;;;;;56.67;45.00;;;;;3.94;59.78;102485.81;2001010;28;3597198;-74
2023/03/04 05:27:27;;;;;;;;;65.00;48.33;;;;;3.94;59.94;102490.13;2015058;28;3647148;-75